KAVX/AVX METAR and TAF weather

Enter ICAO airport designator
Station Type Date Time Source
KAVX METAR 2018/07/17 00:10 UTC NOAA

KAVX 170010Z AUTO 23010KT 3/4SM BR VV002 18/17 A2997 RMK AO2 T01830172 PWINO TSNO $


Station Type Date Time Source
KAVX Decoded METAR 2018/07/17 00:10 UTC NOAA

AVALON CATALINA AIRPORT, CA, United States (KAVX) 33-24N 118-25W 482M
Jul 16, 2018 - 08:10 PM EDT / 2018.07.17 0010 UTC
Wind: from the SW (230 degrees) at 12 MPH (10 KT):0
Visibility: 3/4 mile(s):0
Sky conditions: obscured
Weather: mist
Temperature: 64.9 F (18.3 C)
Dew Point: 63.0 F (17.2 C)
Relative Humidity: 93%
Pressure (altimeter): 29.97 in. Hg (1014 hPa)
ob: KAVX 170010Z AUTO 23010KT 3/4SM BR VV002 18/17 A2997 RMK AO2 T01830172 PWINO TSNO
cycle: 0

Station Type Date Time Source
KAVX TAF UTC NOAA

Error!


Example: see airport list